sensor_id;sensor_type;location;lat;lon;timestamp;P1;durP1;ratioP1;P2;durP2;ratioP2
3815;SDS011;1923;48.154;11.536;2023-04-28T00:00:30;4.97;;;2.73;;
3815;SDS011;1923;48.154;11.536;2023-04-28T00:02:58;6.73;;;3.10;;
3815;SDS011;1923;48.154;11.536;2023-04-28T00:05:27;4.10;;;2.77;;
3815;SDS011;1923;48.154;11.536;2023-04-28T00:07:56;5.97;;;2.60;;
3815;SDS011;1923;48.154;11.536;2023-04-28T00:10:26;3.27;;;2.67;;
3815;SDS011;1923;48.154;11.536;2023-04-28T00:13:18;4.10;;;2.67;;
3815;SDS011;1923;48.154;11.536;2023-04-28T00:15:48;2.90;;;2.30;;
3815;SDS011;1923;48.154;11.536;2023-04-28T00:18:18;3.70;;;2.63;;
3815;SDS011;1923;48.154;11.536;2023-04-28T00:20:47;3.10;;;2.10;;
3815;SDS011;1923;48.154;11.536;2023-04-28T00:23:16;2.90;;;2.30;;
3815;SDS011;1923;48.154;11.536;2023-04-28T00:25:45;3.07;;;2.60;;
3815;SDS011;1923;48.154;11.536;2023-04-28T00:28:17;2.20;;;1.73;;
3815;SDS011;1923;48.154;11.536;2023-04-28T00:30:59;2.20;;;2.03;;
3815;SDS011;1923;48.154;11.536;2023-04-28T00:33:27;2.50;;;2.00;;
3815;SDS011;1923;48.154;11.536;2023-04-28T00:35:58;1.87;;;1.77;;
3815;SDS011;1923;48.154;11.536;2023-04-28T00:38:27;2.53;;;2.20;;
3815;SDS011;1923;48.154;11.536;2023-04-28T00:40:56;1.87;;;1.77;;
3815;SDS011;1923;48.154;11.536;2023-04-28T00:43:24;2.40;;;2.17;;
3815;SDS011;1923;48.154;11.536;2023-04-28T00:45:52;2.50;;;2.30;;
3815;SDS011;1923;48.154;11.536;2023-04-28T00:48:21;3.30;;;2.50;;
3815;SDS011;1923;48.154;11.536;2023-04-28T00:50:50;3.10;;;1.83;;
3815;SDS011;1923;48.154;11.536;2023-04-28T00:53:18;3.87;;;2.07;;
3815;SDS011;1923;48.154;11.536;2023-04-28T00:55:46;2.50;;;1.90;;
3815;SDS011;1923;48.154;11.536;2023-04-28T00:58:16;2.80;;;2.00;;
3815;SDS011;1923;48.154;11.536;2023-04-28T01:00:46;3.10;;;2.30;;
3815;SDS011;1923;48.154;11.536;2023-04-28T01:03:14;3.97;;;2.20;;
3815;SDS011;1923;48.154;11.536;2023-04-28T01:05:42;2.50;;;2.13;;
3815;SDS011;1923;48.154;11.536;2023-04-28T01:08:10;2.27;;;1.87;;
3815;SDS011;1923;48.154;11.536;2023-04-28T01:10:42;2.13;;;2.00;;
3815;SDS011;1923;48.154;11.536;2023-04-28T01:13:10;2.00;;;1.83;;
3815;SDS011;1923;48.154;11.536;2023-04-28T01:15:40;3.43;;;1.93;;
3815;SDS011;1923;48.154;11.536;2023-04-28T01:18:08;2.50;;;1.83;;
3815;SDS011;1923;48.154;11.536;2023-04-28T01:20:36;3.27;;;1.97;;
3815;SDS011;1923;48.154;11.536;2023-04-28T01:23:04;2.37;;;2.17;;
3815;SDS011;1923;48.154;11.536;2023-04-28T01:25:39;4.10;;;2.03;;
3815;SDS011;1923;48.154;11.536;2023-04-28T01:28:07;3.33;;;1.80;;
3815;SDS011;1923;48.154;11.536;2023-04-28T01:30:35;3.20;;;2.40;;
3815;SDS011;1923;48.154;11.536;2023-04-28T01:33:03;2.63;;;2.33;;
3815;SDS011;1923;48.154;11.536;2023-04-28T01:35:31;2.30;;;2.03;;
3815;SDS011;1923;48.154;11.536;2023-04-28T01:38:00;3.03;;;2.20;;
3815;SDS011;1923;48.154;11.536;2023-04-28T01:40:28;3.03;;;1.80;;
3815;SDS011;1923;48.154;11.536;2023-04-28T01:42:57;3.50;;;2.80;;
3815;SDS011;1923;48.154;11.536;2023-04-28T01:45:26;5.03;;;1.63;;
3815;SDS011;1923;48.154;11.536;2023-04-28T01:47:54;4.50;;;2.10;;
3815;SDS011;1923;48.154;11.536;2023-04-28T01:50:22;2.87;;;2.27;;
3815;SDS011;1923;48.154;11.536;2023-04-28T01:52:50;4.20;;;2.00;;
3815;SDS011;1923;48.154;11.536;2023-04-28T01:55:18;4.90;;;1.80;;
3815;SDS011;1923;48.154;11.536;2023-04-28T01:57:46;3.60;;;2.00;;
3815;SDS011;1923;48.154;11.536;2023-04-28T02:00:17;4.70;;;2.07;;
3815;SDS011;1923;48.154;11.536;2023-04-28T02:02:45;2.00;;;1.80;;
3815;SDS011;1923;48.154;11.536;2023-04-28T02:05:13;3.93;;;2.57;;
3815;SDS011;1923;48.154;11.536;2023-04-28T02:07:41;2.40;;;1.90;;
3815;SDS011;1923;48.154;11.536;2023-04-28T02:10:09;1.97;;;1.70;;
3815;SDS011;1923;48.154;11.536;2023-04-28T02:12:37;3.93;;;2.83;;
3815;SDS011;1923;48.154;11.536;2023-04-28T02:15:07;3.07;;;2.07;;
3815;SDS011;1923;48.154;11.536;2023-04-28T02:17:37;5.03;;;1.87;;
3815;SDS011;1923;48.154;11.536;2023-04-28T02:20:05;3.10;;;1.87;;
3815;SDS011;1923;48.154;11.536;2023-04-28T02:22:34;1.87;;;1.70;;
3815;SDS011;1923;48.154;11.536;2023-04-28T02:25:02;2.90;;;1.77;;
3815;SDS011;1923;48.154;11.536;2023-04-28T02:27:30;3.37;;;1.93;;
3815;SDS011;1923;48.154;11.536;2023-04-28T02:29:58;4.37;;;2.10;;
3815;SDS011;1923;48.154;11.536;2023-04-28T02:32:27;10.03;;;3.00;;
3815;SDS011;1923;48.154;11.536;2023-04-28T02:34:56;2.93;;;2.10;;
3815;SDS011;1923;48.154;11.536;2023-04-28T02:37:24;3.10;;;2.00;;
3815;SDS011;1923;48.154;11.536;2023-04-28T02:39:52;3.70;;;2.30;;
3815;SDS011;1923;48.154;11.536;2023-04-28T02:42:20;3.47;;;1.63;;
3815;SDS011;1923;48.154;11.536;2023-04-28T02:44:48;2.93;;;2.00;;
3815;SDS011;1923;48.154;11.536;2023-04-28T02:47:16;2.50;;;2.10;;
3815;SDS011;1923;48.154;11.536;2023-04-28T02:49:44;6.60;;;2.70;;
3815;SDS011;1923;48.154;11.536;2023-04-28T02:52:14;4.50;;;2.23;;
3815;SDS011;1923;48.154;11.536;2023-04-28T02:54:42;2.00;;;1.70;;
3815;SDS011;1923;48.154;11.536;2023-04-28T02:57:13;4.83;;;2.10;;
3815;SDS011;1923;48.154;11.536;2023-04-28T02:59:41;3.40;;;2.40;;
3815;SDS011;1923;48.154;11.536;2023-04-28T03:02:09;2.23;;;2.07;;
3815;SDS011;1923;48.154;11.536;2023-04-28T03:04:38;2.90;;;1.87;;
3815;SDS011;1923;48.154;11.536;2023-04-28T03:07:06;3.57;;;1.97;;
3815;SDS011;1923;48.154;11.536;2023-04-28T03:09:35;1.63;;;1.50;;
3815;SDS011;1923;48.154;11.536;2023-04-28T03:12:06;2.20;;;2.00;;
3815;SDS011;1923;48.154;11.536;2023-04-28T03:14:34;2.53;;;2.07;;
3815;SDS011;1923;48.154;11.536;2023-04-28T03:17:02;2.83;;;2.00;;
3815;SDS011;1923;48.154;11.536;2023-04-28T03:19:30;3.17;;;1.97;;
3815;SDS011;1923;48.154;11.536;2023-04-28T03:21:58;3.47;;;2.07;;
3815;SDS011;1923;48.154;11.536;2023-04-28T03:24:26;2.47;;;1.83;;
3815;SDS011;1923;48.154;11.536;2023-04-28T03:26:56;2.57;;;2.37;;
3815;SDS011;1923;48.154;11.536;2023-04-28T03:29:24;4.37;;;2.47;;
3815;SDS011;1923;48.154;11.536;2023-04-28T03:31:52;2.60;;;2.10;;
3815;SDS011;1923;48.154;11.536;2023-04-28T03:34:20;3.03;;;2.00;;
3815;SDS011;1923;48.154;11.536;2023-04-28T03:36:48;2.47;;;1.73;;
3815;SDS011;1923;48.154;11.536;2023-04-28T03:39:16;1.80;;;1.70;;
3815;SDS011;1923;48.154;11.536;2023-04-28T03:41:44;3.00;;;1.93;;
3815;SDS011;1923;48.154;11.536;2023-04-28T03:44:14;2.90;;;2.27;;
3815;SDS011;1923;48.154;11.536;2023-04-28T03:46:42;2.67;;;1.77;;
3815;SDS011;1923;48.154;11.536;2023-04-28T03:49:10;3.63;;;2.00;;
3815;SDS011;1923;48.154;11.536;2023-04-28T03:51:38;3.10;;;2.03;;
3815;SDS011;1923;48.154;11.536;2023-04-28T03:54:06;2.43;;;1.73;;
3815;SDS011;1923;48.154;11.536;2023-04-28T03:56:34;3.13;;;1.70;;
3815;SDS011;1923;48.154;11.536;2023-04-28T03:59:03;2.10;;;1.80;;
3815;SDS011;1923;48.154;11.536;2023-04-28T04:01:32;1.97;;;1.77;;
3815;SDS011;1923;48.154;11.536;2023-04-28T04:04:01;3.33;;;1.53;;
3815;SDS011;1923;48.154;11.536;2023-04-28T04:06:29;2.33;;;1.70;;
3815;SDS011;1923;48.154;11.536;2023-04-28T04:08:58;1.90;;;1.70;;
3815;SDS011;1923;48.154;11.536;2023-04-28T04:11:26;4.30;;;1.73;;
3815;SDS011;1923;48.154;11.536;2023-04-28T04:13:54;2.40;;;1.73;;
3815;SDS011;1923;48.154;11.536;2023-04-28T04:16:22;3.00;;;2.07;;
3815;SDS011;1923;48.154;11.536;2023-04-28T04:18:52;4.33;;;1.97;;
3815;SDS011;1923;48.154;11.536;2023-04-28T04:21:26;3.20;;;2.30;;
3815;SDS011;1923;48.154;11.536;2023-04-28T04:23:54;2.20;;;2.00;;
3815;SDS011;1923;48.154;11.536;2023-04-28T04:26:22;4.10;;;2.27;;
3815;SDS011;1923;48.154;11.536;2023-04-28T04:28:50;2.20;;;2.00;;
3815;SDS011;1923;48.154;11.536;2023-04-28T04:31:18;2.57;;;2.33;;
3815;SDS011;1923;48.154;11.536;2023-04-28T04:33:48;3.27;;;2.53;;
3815;SDS011;1923;48.154;11.536;2023-04-28T04:36:17;2.80;;;2.20;;
3815;SDS011;1923;48.154;11.536;2023-04-28T04:38:45;2.50;;;2.00;;
3815;SDS011;1923;48.154;11.536;2023-04-28T04:41:13;2.40;;;2.20;;
3815;SDS011;1923;48.154;11.536;2023-04-28T04:43:41;2.27;;;1.80;;
3815;SDS011;1923;48.154;11.536;2023-04-28T04:46:09;4.70;;;1.83;;
3815;SDS011;1923;48.154;11.536;2023-04-28T04:48:37;5.83;;;2.07;;
3815;SDS011;1923;48.154;11.536;2023-04-28T04:51:05;2.10;;;1.90;;
3815;SDS011;1923;48.154;11.536;2023-04-28T04:53:34;3.70;;;1.90;;
3815;SDS011;1923;48.154;11.536;2023-04-28T04:56:03;2.20;;;1.83;;
3815;SDS011;1923;48.154;11.536;2023-04-28T04:58:31;2.40;;;1.90;;
3815;SDS011;1923;48.154;11.536;2023-04-28T05:00:59;2.43;;;1.70;;
3815;SDS011;1923;48.154;11.536;2023-04-28T05:03:28;3.20;;;1.70;;
3815;SDS011;1923;48.154;11.536;2023-04-28T05:05:56;2.60;;;1.67;;
3815;SDS011;1923;48.154;11.536;2023-04-28T05:08:24;3.50;;;2.37;;
3815;SDS011;1923;48.154;11.536;2023-04-28T05:10:54;3.60;;;2.20;;
3815;SDS011;1923;48.154;11.536;2023-04-28T05:13:22;4.37;;;2.40;;
3815;SDS011;1923;48.154;11.536;2023-04-28T05:15:51;4.03;;;2.20;;
3815;SDS011;1923;48.154;11.536;2023-04-28T05:18:19;2.87;;;2.23;;
3815;SDS011;1923;48.154;11.536;2023-04-28T05:20:47;2.40;;;1.70;;
3815;SDS011;1923;48.154;11.536;2023-04-28T05:23:15;3.27;;;2.27;;
3815;SDS011;1923;48.154;11.536;2023-04-28T05:25:43;2.90;;;1.90;;
3815;SDS011;1923;48.154;11.536;2023-04-28T05:28:12;2.10;;;1.90;;
3815;SDS011;1923;48.154;11.536;2023-04-28T05:30:41;2.20;;;2.00;;
3815;SDS011;1923;48.154;11.536;2023-04-28T05:33:10;3.03;;;2.30;;
3815;SDS011;1923;48.154;11.536;2023-04-28T05:35:39;3.10;;;1.80;;
3815;SDS011;1923;48.154;11.536;2023-04-28T05:38:07;2.03;;;1.73;;
3815;SDS011;1923;48.154;11.536;2023-04-28T05:40:35;5.40;;;1.80;;
3815;SDS011;1923;48.154;11.536;2023-04-28T05:43:03;3.90;;;2.30;;
3815;SDS011;1923;48.154;11.536;2023-04-28T05:45:32;2.40;;;2.00;;
3815;SDS011;1923;48.154;11.536;2023-04-28T05:48:00;5.97;;;2.33;;
3815;SDS011;1923;48.154;11.536;2023-04-28T05:50:30;3.73;;;2.83;;
3815;SDS011;1923;48.154;11.536;2023-04-28T05:52:58;12.80;;;2.60;;
3815;SDS011;1923;48.154;11.536;2023-04-28T05:55:26;3.63;;;2.70;;
3815;SDS011;1923;48.154;11.536;2023-04-28T05:57:54;4.80;;;2.33;;
3815;SDS011;1923;48.154;11.536;2023-04-28T06:00:22;4.10;;;2.47;;
3815;SDS011;1923;48.154;11.536;2023-04-28T06:02:52;3.43;;;2.33;;
3815;SDS011;1923;48.154;11.536;2023-04-28T06:05:20;2.50;;;1.80;;
3815;SDS011;1923;48.154;11.536;2023-04-28T06:07:49;2.87;;;2.23;;
3815;SDS011;1923;48.154;11.536;2023-04-28T06:10:20;4.40;;;2.23;;
3815;SDS011;1923;48.154;11.536;2023-04-28T06:12:49;3.57;;;1.97;;
3815;SDS011;1923;48.154;11.536;2023-04-28T06:15:17;4.90;;;2.00;;
3815;SDS011;1923;48.154;11.536;2023-04-28T06:17:46;3.73;;;2.13;;
3815;SDS011;1923;48.154;11.536;2023-04-28T06:20:15;2.80;;;2.17;;
3815;SDS011;1923;48.154;11.536;2023-04-28T06:22:43;7.13;;;2.57;;
3815;SDS011;1923;48.154;11.536;2023-04-28T06:25:11;2.93;;;1.97;;
3815;SDS011;1923;48.154;11.536;2023-04-28T06:27:39;4.00;;;2.30;;
3815;SDS011;1923;48.154;11.536;2023-04-28T06:30:07;4.43;;;2.20;;
3815;SDS011;1923;48.154;11.536;2023-04-28T06:32:36;3.20;;;1.97;;
3815;SDS011;1923;48.154;11.536;2023-04-28T06:35:04;2.70;;;1.77;;
3815;SDS011;1923;48.154;11.536;2023-04-28T06:37:34;2.10;;;1.90;;
3815;SDS011;1923;48.154;11.536;2023-04-28T06:40:03;5.10;;;1.77;;
3815;SDS011;1923;48.154;11.536;2023-04-28T06:42:31;5.73;;;2.40;;
3815;SDS011;1923;48.154;11.536;2023-04-28T06:44:59;2.03;;;1.70;;
3815;SDS011;1923;48.154;11.536;2023-04-28T06:47:27;3.23;;;2.27;;
3815;SDS011;1923;48.154;11.536;2023-04-28T06:49:55;2.07;;;1.80;;
3815;SDS011;1923;48.154;11.536;2023-04-28T06:52:24;2.27;;;2.00;;
3815;SDS011;1923;48.154;11.536;2023-04-28T06:55:06;2.10;;;1.67;;
3815;SDS011;1923;48.154;11.536;2023-04-28T06:57:35;2.47;;;1.70;;
3815;SDS011;1923;48.154;11.536;2023-04-28T07:00:04;2.70;;;1.73;;
3815;SDS011;1923;48.154;11.536;2023-04-28T07:02:34;1.73;;;1.37;;
3815;SDS011;1923;48.154;11.536;2023-04-28T07:05:02;2.13;;;1.70;;
3815;SDS011;1923;48.154;11.536;2023-04-28T07:07:31;2.53;;;1.50;;
3815;SDS011;1923;48.154;11.536;2023-04-28T07:09:59;1.73;;;1.20;;
3815;SDS011;1923;48.154;11.536;2023-04-28T07:12:28;1.60;;;1.00;;
3815;SDS011;1923;48.154;11.536;2023-04-28T07:14:56;1.50;;;1.13;;
3815;SDS011;1923;48.154;11.536;2023-04-28T07:17:24;1.90;;;1.13;;
3815;SDS011;1923;48.154;11.536;2023-04-28T07:19:52;1.23;;;1.10;;
3815;SDS011;1923;48.154;11.536;2023-04-28T07:22:20;1.03;;;0.93;;
3815;SDS011;1923;48.154;11.536;2023-04-28T07:24:48;3.23;;;1.57;;
3815;SDS011;1923;48.154;11.536;2023-04-28T07:27:16;2.93;;;1.27;;
3815;SDS011;1923;48.154;11.536;2023-04-28T07:29:46;1.20;;;1.00;;
3815;SDS011;1923;48.154;11.536;2023-04-28T07:32:14;2.87;;;1.10;;
3815;SDS011;1923;48.154;11.536;2023-04-28T07:34:42;1.77;;;1.30;;
3815;SDS011;1923;48.154;11.536;2023-04-28T07:37:10;0.80;;;0.60;;
3815;SDS011;1923;48.154;11.536;2023-04-28T07:39:38;1.67;;;1.47;;
3815;SDS011;1923;48.154;11.536;2023-04-28T07:42:06;1.63;;;1.37;;
3815;SDS011;1923;48.154;11.536;2023-04-28T07:44:34;2.00;;;1.60;;
3815;SDS011;1923;48.154;11.536;2023-04-28T07:47:04;1.87;;;1.63;;
3815;SDS011;1923;48.154;11.536;2023-04-28T07:49:32;1.67;;;1.47;;
3815;SDS011;1923;48.154;11.536;2023-04-28T07:52:00;2.23;;;1.60;;
3815;SDS011;1923;48.154;11.536;2023-04-28T07:54:28;1.90;;;1.63;;
3815;SDS011;1923;48.154;11.536;2023-04-28T07:56:57;2.37;;;1.63;;
3815;SDS011;1923;48.154;11.536;2023-04-28T07:59:25;2.10;;;1.70;;
3815;SDS011;1923;48.154;11.536;2023-04-28T08:01:53;2.10;;;1.50;;
3815;SDS011;1923;48.154;11.536;2023-04-28T08:04:23;2.87;;;1.67;;
3815;SDS011;1923;48.154;11.536;2023-04-28T08:06:52;4.20;;;1.90;;
3815;SDS011;1923;48.154;11.536;2023-04-28T08:09:20;1.83;;;1.20;;
3815;SDS011;1923;48.154;11.536;2023-04-28T08:11:48;2.90;;;1.20;;
3815;SDS011;1923;48.154;11.536;2023-04-28T08:14:16;2.97;;;1.73;;
3815;SDS011;1923;48.154;11.536;2023-04-28T08:16:44;2.10;;;1.83;;
3815;SDS011;1923;48.154;11.536;2023-04-28T08:19:13;4.57;;;2.20;;
3815;SDS011;1923;48.154;11.536;2023-04-28T08:21:42;1.60;;;1.50;;
3815;SDS011;1923;48.154;11.536;2023-04-28T08:24:11;2.13;;;1.73;;
3815;SDS011;1923;48.154;11.536;2023-04-28T08:26:39;4.10;;;2.20;;
3815;SDS011;1923;48.154;11.536;2023-04-28T08:29:08;1.83;;;1.38;;
3815;SDS011;1923;48.154;11.536;2023-04-28T08:31:36;3.13;;;1.80;;
3815;SDS011;1923;48.154;11.536;2023-04-28T08:34:04;4.03;;;2.13;;
3815;SDS011;1923;48.154;11.536;2023-04-28T08:36:32;2.60;;;1.70;;
3815;SDS011;1923;48.154;11.536;2023-04-28T08:39:01;3.23;;;2.00;;
3815;SDS011;1923;48.154;11.536;2023-04-28T08:41:33;2.20;;;1.40;;
3815;SDS011;1923;48.154;11.536;2023-04-28T08:44:05;3.37;;;1.53;;
3815;SDS011;1923;48.154;11.536;2023-04-28T08:46:35;4.97;;;2.50;;
3815;SDS011;1923;48.154;11.536;2023-04-28T08:49:06;3.23;;;1.73;;
3815;SDS011;1923;48.154;11.536;2023-04-28T08:51:43;2.50;;;1.30;;
3815;SDS011;1923;48.154;11.536;2023-04-28T08:54:14;1.77;;;1.60;;
3815;SDS011;1923;48.154;11.536;2023-04-28T08:56:52;3.00;;;1.27;;
3815;SDS011;1923;48.154;11.536;2023-04-28T08:59:22;1.93;;;1.73;;
3815;SDS011;1923;48.154;11.536;2023-04-28T09:01:50;5.03;;;2.08;;
3815;SDS011;1923;48.154;11.536;2023-04-28T09:04:18;3.40;;;1.97;;
3815;SDS011;1923;48.154;11.536;2023-04-28T09:06:47;3.23;;;1.90;;
3815;SDS011;1923;48.154;11.536;2023-04-28T09:09:20;3.13;;;1.30;;
3815;SDS011;1923;48.154;11.536;2023-04-28T09:11:50;2.60;;;1.50;;
3815;SDS011;1923;48.154;11.536;2023-04-28T09:14:21;3.33;;;2.07;;
3815;SDS011;1923;48.154;11.536;2023-04-28T09:16:49;3.77;;;1.60;;
3815;SDS011;1923;48.154;11.536;2023-04-28T09:19:18;2.67;;;1.70;;
3815;SDS011;1923;48.154;11.536;2023-04-28T09:25:29;2.80;;;1.13;;
3815;SDS011;1923;48.154;11.536;2023-04-28T10:07:07;2.20;;;1.30;;
3815;SDS011;1923;48.154;11.536;2023-04-28T10:09:35;2.83;;;1.60;;
3815;SDS011;1923;48.154;11.536;2023-04-28T10:12:04;3.10;;;2.13;;
3815;SDS011;1923;48.154;11.536;2023-04-28T10:14:33;1.47;;;1.30;;
3815;SDS011;1923;48.154;11.536;2023-04-28T10:17:03;3.90;;;1.50;;
3815;SDS011;1923;48.154;11.536;2023-04-28T10:19:31;3.87;;;1.57;;
3815;SDS011;1923;48.154;11.536;2023-04-28T10:22:03;4.93;;;1.17;;
3815;SDS011;1923;48.154;11.536;2023-04-28T10:24:46;4.47;;;1.57;;
3815;SDS011;1923;48.154;11.536;2023-04-28T10:27:30;2.72;;;1.88;;
3815;SDS011;1923;48.154;11.536;2023-04-28T10:30:09;1.83;;;1.27;;
3815;SDS011;1923;48.154;11.536;2023-04-28T10:35:52;2.03;;;1.63;;
3815;SDS011;1923;48.154;11.536;2023-04-28T10:38:24;3.60;;;1.07;;
3815;SDS011;1923;48.154;11.536;2023-04-28T10:40:52;2.73;;;1.93;;
3815;SDS011;1923;48.154;11.536;2023-04-28T10:43:33;1.30;;;1.10;;
3815;SDS011;1923;48.154;11.536;2023-04-28T10:46:05;3.13;;;1.70;;
3815;SDS011;1923;48.154;11.536;2023-04-28T10:51:32;2.92;;;1.00;;
3815;SDS011;1923;48.154;11.536;2023-04-28T10:54:09;1.67;;;0.85;;
3815;SDS011;1923;48.154;11.536;2023-04-28T10:59:44;1.63;;;1.07;;
3815;SDS011;1923;48.154;11.536;2023-04-28T11:05:15;2.27;;;1.70;;
3815;SDS011;1923;48.154;11.536;2023-04-28T11:11:16;1.90;;;1.37;;
3815;SDS011;1923;48.154;11.536;2023-04-28T11:13:46;1.73;;;1.10;;
3815;SDS011;1923;48.154;11.536;2023-04-28T11:16:15;2.30;;;1.47;;
3815;SDS011;1923;48.154;11.536;2023-04-28T11:21:32;1.67;;;0.83;;
3815;SDS011;1923;48.154;11.536;2023-04-28T11:24:00;1.20;;;1.10;;
3815;SDS011;1923;48.154;11.536;2023-04-28T11:26:37;1.97;;;1.00;;
3815;SDS011;1923;48.154;11.536;2023-04-28T11:29:06;2.50;;;1.33;;
3815;SDS011;1923;48.154;11.536;2023-04-28T11:31:48;4.80;;;2.27;;
3815;SDS011;1923;48.154;11.536;2023-04-28T11:34:23;3.00;;;1.07;;
3815;SDS011;1923;48.154;11.536;2023-04-28T11:36:52;1.63;;;1.30;;
3815;SDS011;1923;48.154;11.536;2023-04-28T11:39:24;2.23;;;1.60;;
3815;SDS011;1923;48.154;11.536;2023-04-28T11:41:56;1.63;;;1.30;;
3815;SDS011;1923;48.154;11.536;2023-04-28T11:44:26;2.50;;;1.20;;
3815;SDS011;1923;48.154;11.536;2023-04-28T11:46:56;3.60;;;1.40;;
3815;SDS011;1923;48.154;11.536;2023-04-28T11:49:27;1.90;;;1.00;;
3815;SDS011;1923;48.154;11.536;2023-04-28T11:51:56;2.53;;;1.30;;
3815;SDS011;1923;48.154;11.536;2023-04-28T11:54:31;2.33;;;1.60;;
3815;SDS011;1923;48.154;11.536;2023-04-28T11:57:00;3.67;;;1.30;;
3815;SDS011;1923;48.154;11.536;2023-04-28T11:59:30;2.50;;;0.90;;
3815;SDS011;1923;48.154;11.536;2023-04-28T12:02:00;1.63;;;0.93;;
3815;SDS011;1923;48.154;11.536;2023-04-28T12:04:29;0.80;;;0.70;;
3815;SDS011;1923;48.154;11.536;2023-04-28T12:07:02;2.57;;;1.10;;
3815;SDS011;1923;48.154;11.536;2023-04-28T12:09:31;1.97;;;1.33;;
3815;SDS011;1923;48.154;11.536;2023-04-28T12:12:02;1.20;;;1.03;;
3815;SDS011;1923;48.154;11.536;2023-04-28T12:14:32;4.83;;;1.20;;
3815;SDS011;1923;48.154;11.536;2023-04-28T12:17:23;2.10;;;1.17;;
3815;SDS011;1923;48.154;11.536;2023-04-28T12:19:52;3.97;;;1.20;;
3815;SDS011;1923;48.154;11.536;2023-04-28T12:22:21;4.07;;;1.77;;
3815;SDS011;1923;48.154;11.536;2023-04-28T12:25:02;8.83;;;2.73;;
3815;SDS011;1923;48.154;11.536;2023-04-28T12:27:33;7.00;;;2.33;;
3815;SDS011;1923;48.154;11.536;2023-04-28T12:32:51;1.57;;;1.20;;
3815;SDS011;1923;48.154;11.536;2023-04-28T12:35:21;2.13;;;1.02;;
3815;SDS011;1923;48.154;11.536;2023-04-28T12:37:49;2.87;;;1.47;;
3815;SDS011;1923;48.154;11.536;2023-04-28T12:40:18;1.37;;;1.23;;
3815;SDS011;1923;48.154;11.536;2023-04-28T12:42:47;7.03;;;2.90;;
3815;SDS011;1923;48.154;11.536;2023-04-28T12:45:16;7.88;;;3.08;;
3815;SDS011;1923;48.154;11.536;2023-04-28T12:47:44;2.95;;;1.60;;
3815;SDS011;1923;48.154;11.536;2023-04-28T12:50:13;4.57;;;1.80;;
3815;SDS011;1923;48.154;11.536;2023-04-28T12:52:41;3.92;;;1.90;;
3815;SDS011;1923;48.154;11.536;2023-04-28T12:55:09;2.37;;;1.30;;
3815;SDS011;1923;48.154;11.536;2023-04-28T12:57:37;4.00;;;1.67;;
3815;SDS011;1923;48.154;11.536;2023-04-28T13:00:07;1.63;;;1.40;;
3815;SDS011;1923;48.154;11.536;2023-04-28T13:02:35;2.30;;;1.67;;
3815;SDS011;1923;48.154;11.536;2023-04-28T13:05:04;1.20;;;0.93;;
3815;SDS011;1923;48.154;11.536;2023-04-28T13:07:34;7.33;;;1.60;;
3815;SDS011;1923;48.154;11.536;2023-04-28T13:10:02;1.60;;;0.93;;
3815;SDS011;1923;48.154;11.536;2023-04-28T13:12:31;2.00;;;1.80;;
3815;SDS011;1923;48.154;11.536;2023-04-28T13:15:00;2.17;;;1.20;;
3815;SDS011;1923;48.154;11.536;2023-04-28T13:17:30;1.67;;;0.83;;
3815;SDS011;1923;48.154;11.536;2023-04-28T13:19:59;1.33;;;1.00;;
3815;SDS011;1923;48.154;11.536;2023-04-28T13:22:29;1.50;;;1.30;;
3815;SDS011;1923;48.154;11.536;2023-04-28T13:24:57;1.90;;;0.87;;
3815;SDS011;1923;48.154;11.536;2023-04-28T13:27:25;1.10;;;0.70;;
3815;SDS011;1923;48.154;11.536;2023-04-28T13:29:55;1.27;;;0.93;;
3815;SDS011;1923;48.154;11.536;2023-04-28T13:32:24;1.37;;;0.80;;
3815;SDS011;1923;48.154;11.536;2023-04-28T13:34:55;1.67;;;1.20;;
3815;SDS011;1923;48.154;11.536;2023-04-28T13:37:23;1.33;;;0.93;;
3815;SDS011;1923;48.154;11.536;2023-04-28T13:39:51;1.30;;;1.03;;
3815;SDS011;1923;48.154;11.536;2023-04-28T13:42:19;3.40;;;0.70;;
3815;SDS011;1923;48.154;11.536;2023-04-28T13:44:46;3.03;;;1.40;;
3815;SDS011;1923;48.154;11.536;2023-04-28T13:47:14;1.47;;;1.00;;
3815;SDS011;1923;48.154;11.536;2023-04-28T13:49:42;2.10;;;0.73;;
3815;SDS011;1923;48.154;11.536;2023-04-28T13:52:12;1.13;;;0.67;;
3815;SDS011;1923;48.154;11.536;2023-04-28T13:54:40;1.97;;;1.20;;
3815;SDS011;1923;48.154;11.536;2023-04-28T13:57:08;1.03;;;0.60;;
3815;SDS011;1923;48.154;11.536;2023-04-28T13:59:38;1.00;;;0.70;;
3815;SDS011;1923;48.154;11.536;2023-04-28T14:02:06;1.43;;;0.60;;
3815;SDS011;1923;48.154;11.536;2023-04-28T14:04:36;0.90;;;0.50;;
3815;SDS011;1923;48.154;11.536;2023-04-28T14:07:06;0.97;;;0.70;;
3815;SDS011;1923;48.154;11.536;2023-04-28T14:09:36;1.00;;;0.70;;
3815;SDS011;1923;48.154;11.536;2023-04-28T14:12:05;0.80;;;0.53;;
3815;SDS011;1923;48.154;11.536;2023-04-28T14:14:34;0.60;;;0.40;;
3815;SDS011;1923;48.154;11.536;2023-04-28T14:17:05;1.00;;;0.60;;
3815;SDS011;1923;48.154;11.536;2023-04-28T14:19:34;0.80;;;0.50;;
3815;SDS011;1923;48.154;11.536;2023-04-28T14:22:05;0.70;;;0.57;;
3815;SDS011;1923;48.154;11.536;2023-04-28T14:24:33;0.97;;;0.50;;
3815;SDS011;1923;48.154;11.536;2023-04-28T14:27:02;1.00;;;0.70;;
3815;SDS011;1923;48.154;11.536;2023-04-28T14:29:30;1.27;;;0.70;;
3815;SDS011;1923;48.154;11.536;2023-04-28T14:31:58;1.47;;;0.80;;
3815;SDS011;1923;48.154;11.536;2023-04-28T14:34:26;0.60;;;0.40;;
3815;SDS011;1923;48.154;11.536;2023-04-28T14:36:55;0.70;;;0.50;;
3815;SDS011;1923;48.154;11.536;2023-04-28T14:39:23;1.00;;;0.60;;
3815;SDS011;1923;48.154;11.536;2023-04-28T14:41:51;1.07;;;0.80;;
3815;SDS011;1923;48.154;11.536;2023-04-28T14:44:20;1.47;;;0.73;;
3815;SDS011;1923;48.154;11.536;2023-04-28T14:46:49;1.20;;;0.80;;
3815;SDS011;1923;48.154;11.536;2023-04-28T14:49:17;2.13;;;1.10;;
3815;SDS011;1923;48.154;11.536;2023-04-28T14:51:46;0.80;;;0.60;;
3815;SDS011;1923;48.154;11.536;2023-04-28T14:54:15;2.40;;;1.50;;
3815;SDS011;1923;48.154;11.536;2023-04-28T14:56:43;1.43;;;0.70;;
3815;SDS011;1923;48.154;11.536;2023-04-28T14:59:11;4.83;;;1.20;;
3815;SDS011;1923;48.154;11.536;2023-04-28T15:01:40;1.53;;;0.70;;
3815;SDS011;1923;48.154;11.536;2023-04-28T15:04:09;2.30;;;1.33;;
3815;SDS011;1923;48.154;11.536;2023-04-28T15:06:37;1.50;;;1.10;;
3815;SDS011;1923;48.154;11.536;2023-04-28T15:09:06;2.10;;;1.20;;
3815;SDS011;1923;48.154;11.536;2023-04-28T15:11:35;1.03;;;0.80;;
3815;SDS011;1923;48.154;11.536;2023-04-28T15:14:04;2.57;;;1.43;;
3815;SDS011;1923;48.154;11.536;2023-04-28T15:16:32;1.57;;;0.73;;
3815;SDS011;1923;48.154;11.536;2023-04-28T15:19:01;3.67;;;1.40;;
3815;SDS011;1923;48.154;11.536;2023-04-28T15:21:29;3.90;;;1.10;;
3815;SDS011;1923;48.154;11.536;2023-04-28T15:23:57;1.00;;;0.70;;
3815;SDS011;1923;48.154;11.536;2023-04-28T15:26:26;1.57;;;1.30;;
3815;SDS011;1923;48.154;11.536;2023-04-28T15:28:55;2.33;;;1.13;;
3815;SDS011;1923;48.154;11.536;2023-04-28T15:31:23;3.40;;;1.10;;
3815;SDS011;1923;48.154;11.536;2023-04-28T15:33:53;7.33;;;1.13;;
3815;SDS011;1923;48.154;11.536;2023-04-28T15:36:23;1.83;;;0.90;;
3815;SDS011;1923;48.154;11.536;2023-04-28T15:38:52;1.73;;;1.00;;
3815;SDS011;1923;48.154;11.536;2023-04-28T15:41:19;1.33;;;0.60;;
3815;SDS011;1923;48.154;11.536;2023-04-28T15:43:47;2.23;;;1.20;;
3815;SDS011;1923;48.154;11.536;2023-04-28T15:46:16;2.20;;;1.40;;
3815;SDS011;1923;48.154;11.536;2023-04-28T15:48:44;2.33;;;1.37;;
3815;SDS011;1923;48.154;11.536;2023-04-28T15:51:12;1.70;;;1.10;;
3815;SDS011;1923;48.154;11.536;2023-04-28T15:53:41;1.40;;;0.90;;
3815;SDS011;1923;48.154;11.536;2023-04-28T15:56:09;1.50;;;1.00;;
3815;SDS011;1923;48.154;11.536;2023-04-28T15:58:37;1.93;;;1.30;;
3815;SDS011;1923;48.154;11.536;2023-04-28T16:01:05;2.00;;;1.23;;
3815;SDS011;1923;48.154;11.536;2023-04-28T16:03:33;2.00;;;1.50;;
3815;SDS011;1923;48.154;11.536;2023-04-28T16:06:02;1.83;;;1.30;;
3815;SDS011;1923;48.154;11.536;2023-04-28T16:08:31;2.70;;;1.70;;
3815;SDS011;1923;48.154;11.536;2023-04-28T16:11:01;4.10;;;1.93;;
3815;SDS011;1923;48.154;11.536;2023-04-28T16:13:29;2.07;;;1.63;;
3815;SDS011;1923;48.154;11.536;2023-04-28T16:16:02;3.37;;;2.50;;